createdAt,value
2022-09-03T00:01:05.000Z,17.58
2022-09-03T00:06:00.000Z,17.6
2022-09-03T00:10:55.000Z,17.49
2022-09-03T00:15:49.000Z,17.52
2022-09-03T00:20:44.000Z,17.4
2022-09-03T00:25:38.000Z,17.21
2022-09-03T00:30:31.000Z,17.35
2022-09-03T00:35:25.000Z,17.32
2022-09-03T00:40:20.000Z,17.19
2022-09-03T00:45:13.000Z,17.27
2022-09-03T00:50:08.000Z,17.14
2022-09-03T00:55:02.000Z,17.15
2022-09-03T00:59:55.000Z,16.93
2022-09-03T01:04:50.000Z,16.89
2022-09-03T01:09:44.000Z,16.84
2022-09-03T01:14:39.000Z,16.83
2022-09-03T01:19:32.000Z,16.85
2022-09-03T01:24:27.000Z,16.81
2022-09-03T01:29:22.000Z,16.89
2022-09-03T01:34:17.000Z,17.09
2022-09-03T01:39:11.000Z,16.85
2022-09-03T01:44:05.000Z,16.81
2022-09-03T01:49:00.000Z,16.76
2022-09-03T01:53:54.000Z,16.87
2022-09-03T01:58:49.000Z,16.83
2022-09-03T02:03:44.000Z,16.86
2022-09-03T02:08:39.000Z,16.85
2022-09-03T02:13:33.000Z,16.55
2022-09-03T02:18:28.000Z,16.35
2022-09-03T02:23:23.000Z,16.1
2022-09-03T02:28:16.000Z,16.04
2022-09-03T02:33:10.000Z,16.03
2022-09-03T02:38:04.000Z,16
2022-09-03T02:42:59.000Z,16.03
2022-09-03T02:47:52.000Z,16.16
2022-09-03T02:52:47.000Z,16.16
2022-09-03T02:57:41.000Z,16.11
2022-09-03T03:02:36.000Z,16.09
2022-09-03T03:07:30.000Z,16.15
2022-09-03T03:12:25.000Z,16.37
2022-09-03T03:17:19.000Z,16.53
2022-09-03T03:22:14.000Z,16.51
2022-09-03T03:27:09.000Z,16.56
2022-09-03T03:32:03.000Z,16.4
2022-09-03T03:36:58.000Z,16.59
2022-09-03T03:41:52.000Z,16.67
2022-09-03T03:46:46.000Z,16.54
2022-09-03T03:51:41.000Z,16.59
2022-09-03T03:56:35.000Z,16.44
2022-09-03T04:01:29.000Z,16.24
2022-09-03T04:06:23.000Z,16.16
2022-09-03T04:11:18.000Z,16.11
2022-09-03T04:16:12.000Z,16.12
2022-09-03T04:21:06.000Z,16.29
2022-09-03T04:26:01.000Z,16.32
2022-09-03T04:30:55.000Z,16.4
2022-09-03T04:35:50.000Z,16.26
2022-09-03T04:40:45.000Z,16.08
2022-09-03T04:45:40.000Z,15.89
2022-09-03T04:50:34.000Z,15.98
2022-09-03T04:55:29.000Z,16.02
2022-09-03T05:00:24.000Z,16.16
2022-09-03T05:05:18.000Z,16.16
2022-09-03T05:10:12.000Z,16.27
2022-09-03T05:15:07.000Z,16.28
2022-09-03T05:20:01.000Z,16.4
2022-09-03T05:24:56.000Z,16.41
2022-09-03T05:29:51.000Z,16.55
2022-09-03T05:34:45.000Z,16.65
2022-09-03T05:39:40.000Z,16.75
2022-09-03T05:44:35.000Z,16.8
2022-09-03T05:49:30.000Z,16.94
2022-09-03T05:54:25.000Z,17.1
2022-09-03T05:59:19.000Z,16.95
2022-09-03T06:04:13.000Z,17.05
2022-09-03T06:09:08.000Z,17.12
2022-09-03T06:14:01.000Z,17.17
2022-09-03T06:18:56.000Z,17.29
2022-09-03T06:23:51.000Z,17.41
2022-09-03T06:28:46.000Z,17.43
2022-09-03T06:33:40.000Z,17.5
2022-09-03T06:43:29.000Z,17.36
2022-09-03T06:48:24.000Z,17.18
2022-09-03T06:58:12.000Z,17.01
2022-09-03T07:03:07.000Z,17
2022-09-03T07:08:01.000Z,17.01
2022-09-03T07:12:56.000Z,16.92
2022-09-03T07:17:50.000Z,17.04
2022-09-03T07:22:45.000Z,17.01
2022-09-03T07:27:40.000Z,17.09
2022-09-03T07:32:35.000Z,17.32
2022-09-03T07:37:29.000Z,17.6
2022-09-03T07:42:24.000Z,17.83
2022-09-03T07:47:19.000Z,18.02
2022-09-03T07:52:14.000Z,18.11
2022-09-03T07:57:07.000Z,18.49
2022-09-03T08:02:01.000Z,19.06
2022-09-03T08:06:56.000Z,19.2
2022-09-03T08:11:51.000Z,20.11
2022-09-03T08:16:46.000Z,19.78
2022-09-03T08:21:40.000Z,19.45
2022-09-03T08:26:34.000Z,19.51
2022-09-03T08:31:29.000Z,18.77
2022-09-03T08:36:23.000Z,18.95
2022-09-03T08:41:17.000Z,18.8
2022-09-03T08:46:11.000Z,18.56
2022-09-03T08:51:05.000Z,18.48
2022-09-03T08:56:00.000Z,18.51
2022-09-03T09:00:54.000Z,18.21
2022-09-03T09:05:49.000Z,18.2
2022-09-03T09:10:43.000Z,18.36
2022-09-03T09:15:38.000Z,18.25
2022-09-03T09:20:32.000Z,18.08
2022-09-03T09:25:27.000Z,18.39
2022-09-03T09:30:21.000Z,18.13
2022-09-03T09:35:15.000Z,17.99
2022-09-03T09:40:13.000Z,17.88
2022-09-03T09:45:03.000Z,18.15
2022-09-03T09:49:57.000Z,18.44
2022-09-03T09:54:52.000Z,18.89
2022-09-03T09:59:47.000Z,18.93
2022-09-03T10:04:42.000Z,18.63
2022-09-03T10:09:36.000Z,17.99
2022-09-03T10:14:30.000Z,18.37
2022-09-03T10:19:25.000Z,18.58
2022-09-03T10:24:19.000Z,19.09
2022-09-03T10:29:14.000Z,19.67
2022-09-03T10:34:09.000Z,20.34
2022-09-03T10:39:04.000Z,20.21
2022-09-03T10:43:58.000Z,20.82
2022-09-03T10:48:53.000Z,20.79
2022-09-03T10:53:48.000Z,20.7
2022-09-03T10:58:42.000Z,21.1
2022-09-03T11:03:37.000Z,21.49
2022-09-03T11:08:32.000Z,21.53
2022-09-03T11:13:26.000Z,22.27
2022-09-03T11:18:21.000Z,23.09
2022-09-03T11:23:16.000Z,22.98
2022-09-03T11:28:11.000Z,23.01
2022-09-03T11:33:04.000Z,22.83
2022-09-03T11:37:59.000Z,23.6
2022-09-03T11:42:54.000Z,23.14
2022-09-03T11:47:49.000Z,23.05
2022-09-03T11:57:39.000Z,26.68
2022-09-03T12:02:34.000Z,29.42
2022-09-03T12:07:31.000Z,30.81
2022-09-03T12:12:27.000Z,30.06
2022-09-03T12:17:22.000Z,30.08
2022-09-03T12:22:18.000Z,30.1
2022-09-03T12:27:13.000Z,29.68
2022-09-03T12:32:07.000Z,27.93
2022-09-03T12:37:01.000Z,29.28
2022-09-03T12:41:55.000Z,29.75
2022-09-03T12:46:50.000Z,27.56
2022-09-03T12:51:43.000Z,26.07
2022-09-03T12:56:36.000Z,26.07
2022-09-03T13:01:29.000Z,26.48
2022-09-03T13:06:24.000Z,26.07
2022-09-03T13:11:18.000Z,26.04
2022-09-03T13:16:10.000Z,25.51
2022-09-03T13:21:04.000Z,25.83
2022-09-03T13:26:01.000Z,25.7
2022-09-03T13:30:51.000Z,24.21
2022-09-03T13:35:45.000Z,25.07
2022-09-03T13:40:40.000Z,30.54
2022-09-03T13:45:37.000Z,28.05
2022-09-03T13:50:32.000Z,27.43
2022-09-03T13:55:26.000Z,30
2022-09-03T14:00:22.000Z,29.92
2022-09-03T14:05:18.000Z,31.32
2022-09-03T14:10:13.000Z,30.47
2022-09-03T14:15:07.000Z,25.33
2022-09-03T14:20:00.000Z,25.25
2022-09-03T14:24:53.000Z,26.79
2022-09-03T14:29:48.000Z,25.87
2022-09-03T14:34:42.000Z,25.92
2022-09-03T14:39:36.000Z,24.92
2022-09-03T14:44:32.000Z,24.46
2022-09-03T14:54:18.000Z,28.7
2022-09-03T14:59:14.000Z,28.77
2022-09-03T15:04:09.000Z,25.34
2022-09-03T15:09:03.000Z,24.13
2022-09-03T15:13:56.000Z,23.61
2022-09-03T15:18:49.000Z,23.25
2022-09-03T15:23:43.000Z,23.05
2022-09-03T15:28:37.000Z,22.63
2022-09-03T15:33:31.000Z,22.43
2022-09-03T15:38:25.000Z,22.16
2022-09-03T15:43:19.000Z,21.82
2022-09-03T15:48:13.000Z,21.74
2022-09-03T15:53:08.000Z,18.86
2022-09-03T16:02:56.000Z,18.64
2022-09-03T16:07:50.000Z,18.34
2022-09-03T16:12:44.000Z,18.23
2022-09-03T16:17:38.000Z,18.23
2022-09-03T16:22:32.000Z,17.56
2022-09-03T16:27:27.000Z,17.17
2022-09-03T16:32:21.000Z,17.01
2022-09-03T16:37:15.000Z,17.03
2022-09-03T16:42:10.000Z,16.91
2022-09-03T16:47:05.000Z,16.95
2022-09-03T16:51:59.000Z,16.94
2022-09-03T16:56:54.000Z,17.04
2022-09-03T17:01:49.000Z,16.96
2022-09-03T17:06:43.000Z,17.08
2022-09-03T17:16:32.000Z,17.44
2022-09-03T17:21:27.000Z,17.84
2022-09-03T17:46:03.000Z,18.41
2022-09-03T17:50:57.000Z,18.34
2022-09-03T17:55:51.000Z,18.29
2022-09-03T18:00:46.000Z,18.12
2022-09-03T18:05:40.000Z,17.9
2022-09-03T18:10:35.000Z,17.59
2022-09-03T18:15:30.000Z,17.54
2022-09-03T18:20:24.000Z,17.4
2022-09-03T18:25:19.000Z,17.29
2022-09-03T18:30:13.000Z,17.17
2022-09-03T18:35:08.000Z,17.14
2022-09-03T18:40:02.000Z,17.09
2022-09-03T18:44:57.000Z,17.09
2022-09-03T18:49:52.000Z,16.92
2022-09-03T18:54:46.000Z,16.68
2022-09-03T18:59:41.000Z,16.7
2022-09-03T19:04:36.000Z,16.66
2022-09-03T19:09:30.000Z,16.57
2022-09-03T19:14:24.000Z,16.5
2022-09-03T19:19:18.000Z,16.41
2022-09-03T19:24:13.000Z,16.35
2022-09-03T19:29:08.000Z,16.26
2022-09-03T19:34:02.000Z,16.19
2022-09-03T19:38:55.000Z,16.11
2022-09-03T19:43:50.000Z,16.08
2022-09-03T19:48:44.000Z,16.07
2022-09-03T19:53:39.000Z,15.93
2022-09-03T19:58:33.000Z,15.9
2022-09-03T20:03:28.000Z,15.94
2022-09-03T20:08:22.000Z,15.85
2022-09-03T20:13:17.000Z,15.74
2022-09-03T20:18:11.000Z,15.6
2022-09-03T20:23:05.000Z,15.53
2022-09-03T20:28:00.000Z,15.51
2022-09-03T20:32:55.000Z,15.51
2022-09-03T20:37:48.000Z,15.44
2022-09-03T20:42:43.000Z,15.4
2022-09-03T20:47:36.000Z,15.5
2022-09-03T20:52:31.000Z,15.43
2022-09-03T20:57:26.000Z,15.31
2022-09-03T21:02:21.000Z,15.25
2022-09-03T21:07:15.000Z,15.16
2022-09-03T21:12:10.000Z,15.11
2022-09-03T21:17:05.000Z,15.1
2022-09-03T21:21:59.000Z,15
2022-09-03T21:26:54.000Z,14.94
2022-09-03T21:31:49.000Z,15
2022-09-03T21:36:44.000Z,15.01
2022-09-03T21:41:39.000Z,15.01
2022-09-03T21:51:28.000Z,15.18
2022-09-03T21:56:23.000Z,15.26
2022-09-03T22:01:16.000Z,15.22
2022-09-03T22:06:09.000Z,15.07
2022-09-03T22:11:01.000Z,15.03
2022-09-03T22:15:56.000Z,14.9
2022-09-03T22:20:51.000Z,14.82
2022-09-03T22:25:45.000Z,14.75
2022-09-03T22:30:40.000Z,14.71
2022-09-03T22:35:35.000Z,14.63
2022-09-03T22:45:24.000Z,14.51
2022-09-03T22:50:19.000Z,14.44
2022-09-03T22:55:13.000Z,14.37
2022-09-03T23:00:08.000Z,14.37
2022-09-03T23:05:03.000Z,14.35
2022-09-03T23:09:58.000Z,14.28
2022-09-03T23:14:52.000Z,14.28
2022-09-03T23:24:42.000Z,14.23
2022-09-03T23:29:36.000Z,14.23
2022-09-03T23:34:31.000Z,14.15
2022-09-03T23:39:26.000Z,14.07
2022-09-03T23:44:19.000Z,14.11
2022-09-03T23:49:13.000Z,14.05
2022-09-03T23:54:08.000Z,13.98
2022-09-03T23:59:03.000Z,13.97
